Time;durP1;ratioP1;P1;durP2;ratioP2;P2;SDS_P1;SDS_P2;PMS_P1;PMS_P2;Temp;Humidity;BMP_temperature;BMP_pressure;BME280_temperature;BME280_humidity;BME280_pressure;Samples;Min_cycle;Max_cycle;Signal;HPM_P1;HPM_P2
2021/10/09 00:01:22;;;;;;;;;25.75;21.00;;;;;15.39;60.27;102223.19;6215430;22;45498;-84
2021/10/09 00:03:50;;;;;;;;;22.00;19.50;;;;;15.34;60.34;102224.97;6215860;22;46995;-83
2021/10/09 00:06:16;;;;;;;;;22.50;19.75;;;;;15.51;60.20;102255.06;6215478;22;45886;-83
2021/10/09 00:08:42;;;;;;;;;20.00;17.00;;;;;15.48;60.66;102262.16;6215844;22;45378;-83
2021/10/09 00:11:15;;;;;;;;;26.50;20.00;;;;;15.30;60.45;102221.44;6215043;22;45257;-83
2021/10/09 00:13:41;;;;;;;;;24.50;20.50;;;;;15.47;60.25;102253.28;6217145;22;45363;-83
2021/10/09 00:16:06;;;;;;;;;23.75;19.00;;;;;15.30;60.10;102229.38;6215148;22;45390;-83
2021/10/09 00:18:32;;;;;;;;;22.50;21.00;;;;;15.40;60.72;102244.44;6215592;22;45364;-83
2021/10/09 00:20:57;;;;;;;;;21.00;21.00;;;;;15.40;60.31;102251.53;6214977;22;45414;-83
2021/10/09 00:23:23;;;;;;;;;24.00;21.25;;;;;15.39;60.51;102249.72;6214418;22;46878;-83
2021/10/09 00:25:48;;;;;;;;;22.75;20.75;;;;;15.36;60.64;102249.72;6240665;22;45381;-83
2021/10/09 00:28:14;;;;;;;;;19.50;18.25;;;;;15.32;60.95;102255.94;6216858;22;45162;-83
2021/10/09 00:30:39;;;;;;;;;24.00;21.00;;;;;15.17;60.70;102238.22;6216194;22;45159;-83
2021/10/09 00:33:05;;;;;;;;;26.25;21.25;;;;;15.26;61.15;102251.47;6217666;22;45761;-83
2021/10/09 00:35:30;;;;;;;;;23.75;21.50;;;;;15.10;60.77;102229.38;6214818;22;45119;-83
2021/10/09 00:37:56;;;;;;;;;23.50;21.25;;;;;15.19;60.80;102250.59;6217856;22;45190;-83
2021/10/09 00:40:21;;;;;;;;;20.50;18.25;;;;;15.06;60.98;102224.06;6217512;22;45410;-83
2021/10/09 00:42:47;;;;;;;;;24.75;21.00;;;;;15.05;61.18;102222.28;6217638;22;46052;-83
2021/10/09 00:45:12;;;;;;;;;19.75;19.75;;;;;15.12;61.06;102235.56;6215068;22;45643;-83
2021/10/09 00:47:38;;;;;;;;;21.25;20.50;;;;;15.12;61.37;102232.03;6216342;22;45262;-83
2021/10/09 00:50:04;;;;;;;;;18.75;18.75;;;;;14.97;61.20;102223.16;6217651;22;45451;-82
2021/10/09 00:52:33;;;;;;;;;25.25;20.75;;;;;14.95;61.50;102224.03;6218810;22;46949;-83
2021/10/09 00:55:03;;;;;;;;;24.25;24.00;;;;;15.07;61.44;102258.53;6219864;22;45106;-83
2021/10/09 00:57:29;;;;;;;;;24.75;22.00;;;;;15.06;61.43;102251.47;6216952;22;45392;-83
2021/10/09 00:59:59;;;;;;;;;28.50;23.00;;;;;15.06;61.40;102247.94;6215183;22;45729;-82
2021/10/09 01:02:25;;;;;;;;;23.75;21.75;;;;;14.93;61.40;102229.34;6215657;22;46984;-83
2021/10/09 01:04:51;;;;;;;;;25.00;23.00;;;;;15.01;61.78;102247.91;6214857;22;45273;-83
2021/10/09 01:07:18;;;;;;;;;25.50;21.50;;;;;14.90;61.43;102234.63;6217396;22;45394;-83
2021/10/09 01:09:46;;;;;;;;;30.00;22.00;;;;;14.93;61.41;102231.97;6218573;22;45399;-83
2021/10/09 01:12:15;;;;;;;;;21.50;21.25;;;;;15.02;61.78;102252.31;6216582;22;46047;-83
2021/10/09 01:14:41;;;;;;;;;24.00;22.75;;;;;14.95;61.45;102240.84;6216513;22;45220;-84
2021/10/09 01:17:13;;;;;;;;;29.75;24.75;;;;;14.97;61.53;102257.66;6216677;22;45410;-83
2021/10/09 01:19:39;;;;;;;;;23.25;21.25;;;;;14.87;61.65;102234.63;6217997;22;45229;-82
2021/10/09 01:22:05;;;;;;;;;25.50;24.75;;;;;14.89;61.57;102234.63;6214044;22;46235;-83
2021/10/09 01:24:31;;;;;;;;;20.50;19.75;;;;;14.81;61.36;102226.66;6216887;22;45235;-82
2021/10/09 01:26:56;;;;;;;;;24.00;21.00;;;;;14.80;61.81;102243.44;6216555;22;45437;-83
2021/10/09 01:29:22;;;;;;;;;27.50;25.50;;;;;14.81;61.49;102247.88;6215170;22;45234;-83
2021/10/09 01:31:48;;;;;;;;;31.75;30.00;;;;;14.72;61.20;102218.69;6214645;22;47816;-83
2021/10/09 01:34:19;;;;;;;;;24.75;23.25;;;;;14.73;61.65;102233.72;6240723;22;45237;-83
2021/10/09 01:36:45;;;;;;;;;27.00;22.75;;;;;14.71;61.69;102228.41;6214225;22;45186;-83
2021/10/09 01:39:11;;;;;;;;;24.00;23.25;;;;;14.63;61.16;102219.53;6217944;22;45161;-83
2021/10/09 01:41:44;;;;;;;;;26.00;25.00;;;;;14.78;61.18;102246.09;6218031;22;46047;-83
2021/10/09 01:44:10;;;;;;;;;23.50;22.75;;;;;14.75;61.36;102248.75;6218118;22;45893;-83
2021/10/09 01:46:36;;;;;;;;;27.00;23.50;;;;;14.63;61.66;102226.63;6216013;22;45192;-83
2021/10/09 01:49:04;;;;;;;;;27.25;25.75;;;;;14.73;61.43;102241.69;6218286;22;45366;-83
2021/10/09 01:51:30;;;;;;;;;22.25;21.50;;;;;14.56;61.60;102218.63;6215599;22;47004;-83
2021/10/09 01:53:56;;;;;;;;;24.25;21.25;;;;;14.65;61.45;102235.44;6218297;22;45345;-83
2021/10/09 01:56:21;;;;;;;;;22.75;22.50;;;;;14.60;61.47;102231.91;6216066;22;45391;-83
2021/10/09 01:58:47;;;;;;;;;25.50;21.00;;;;;14.64;61.24;102247.81;6216654;22;45350;-82
2021/10/09 02:01:12;;;;;;;;;22.75;21.75;;;;;14.51;61.48;102223.00;6219017;22;45488;-83
2021/10/09 02:03:38;;;;;;;;;22.50;21.75;;;;;14.61;61.17;102238.97;6218814;22;45403;-83
2021/10/09 02:06:04;;;;;;;;;23.50;21.00;;;;;14.49;61.16;102229.19;6221326;22;45160;-83
2021/10/09 02:08:29;;;;;;;;;23.25;20.00;;;;;14.59;61.21;102246.91;6217014;22;45159;-83
2021/10/09 02:10:59;;;;;;;;;23.75;21.50;;;;;14.44;61.76;102218.56;6217648;22;46304;-83
2021/10/09 02:19:10;;;;;;;;;28.75;23.50;;;;;14.61;61.04;102241.63;6217819;22;45174;-83
2021/10/09 02:24:53;;;;;;;;;22.25;21.75;;;;;14.47;61.73;102228.28;6217951;22;45227;-83
2021/10/09 02:27:19;;;;;;;;;31.75;27.25;;;;;14.42;61.40;102230.03;6218642;22;45415;-83
2021/10/09 02:29:44;;;;;;;;;30.50;27.00;;;;;14.32;61.78;102219.38;6219740;22;45389;-83
2021/10/09 02:32:09;;;;;;;;;28.00;26.00;;;;;14.22;62.10;102204.34;6219062;22;46065;-83
2021/10/09 02:34:35;;;;;;;;;27.75;26.00;;;;;14.28;62.07;102229.97;6218277;22;45286;-83
2021/10/09 02:37:00;;;;;;;;;24.75;23.00;;;;;14.23;61.74;102231.72;6217783;22;45368;-84
2021/10/09 02:39:26;;;;;;;;;29.25;26.25;;;;;14.07;62.29;102213.06;6219734;22;45494;-84
2021/10/09 02:41:52;;;;;;;;;29.25;27.00;;;;;14.19;61.85;102241.38;6217695;22;45990;-83
2021/10/09 02:44:18;;;;;;;;;28.00;25.00;;;;;14.18;62.02;102242.28;6218652;22;45302;-81
2021/10/09 02:46:44;;;;;;;;;29.50;24.00;;;;;14.00;61.84;102216.56;6218104;22;45375;-83
2021/10/09 02:49:09;;;;;;;;;28.50;24.50;;;;;13.99;62.38;102213.91;6215542;22;45343;-83
2021/10/09 02:51:35;;;;;;;;;23.00;21.00;;;;;14.02;62.48;102224.53;6216406;22;47871;-83
2021/10/09 02:54:00;;;;;;;;;25.00;24.00;;;;;14.08;61.92;102233.38;6218088;22;45129;-83
2021/10/09 02:56:26;;;;;;;;;27.25;25.25;;;;;14.05;62.52;102237.78;6218866;22;45216;-83
2021/10/09 02:58:51;;;;;;;;;22.50;20.50;;;;;13.90;62.06;102222.69;6217657;22;45494;-83
2021/10/09 03:01:17;;;;;;;;;30.25;27.75;;;;;13.92;62.60;102234.16;6217400;22;46926;-83
2021/10/09 03:03:42;;;;;;;;;27.25;25.75;;;;;13.89;62.18;102224.44;6217592;22;45157;-83
2021/10/09 03:06:08;;;;;;;;;30.25;27.00;;;;;13.84;62.04;102220.88;6218689;22;45132;-83
2021/10/09 03:08:33;;;;;;;;;27.75;25.75;;;;;13.75;62.22;102207.59;6217487;22;45169;-83
2021/10/09 03:10:58;;;;;;;;;28.50;27.50;;;;;13.83;62.50;102235.00;6218067;22;45325;-83
2021/10/09 03:13:24;;;;;;;;;29.50;28.75;;;;;13.79;62.99;102227.94;6215038;22;45301;-83
2021/10/09 03:15:50;;;;;;;;;30.50;28.25;;;;;13.65;62.97;102211.03;6215696;22;45326;-83
2021/10/09 03:18:15;;;;;;;;;28.50;28.25;;;;;13.60;62.85;102208.34;6216032;22;45528;-83
2021/10/09 03:20:41;;;;;;;;;27.50;26.50;;;;;13.67;62.86;102222.53;6215929;22;47088;-83
2021/10/09 03:23:06;;;;;;;;;27.75;25.25;;;;;13.55;63.11;102214.50;6215398;22;45454;-83
2021/10/09 03:25:32;;;;;;;;;30.00;26.75;;;;;13.67;62.82;102238.41;6218046;22;45415;-84
2021/10/09 03:27:57;;;;;;;;;31.50;26.00;;;;;13.65;63.00;102242.78;6216739;22;45345;-83
2021/10/09 03:30:23;;;;;;;;;28.25;26.00;;;;;13.56;63.44;102221.56;6218210;22;45223;-83
2021/10/09 03:32:48;;;;;;;;;29.25;26.25;;;;;13.62;63.47;102243.66;6217977;22;45191;-83
2021/10/09 03:35:14;;;;;;;;;34.00;31.25;;;;;13.55;63.76;102236.56;6218786;22;45249;-83
2021/10/09 03:37:39;;;;;;;;;30.00;27.25;;;;;13.51;63.99;102233.88;6218046;22;45426;-83
2021/10/09 03:40:09;;;;;;;;;30.75;27.75;;;;;13.41;63.83;102224.97;6216180;22;46893;-83
2021/10/09 03:45:15;;;;;;;;;30.75;27.25;;;;;13.38;64.08;102222.28;6218818;22;45339;-83
2021/10/09 03:52:23;;;;;;;;;29.75;27.00;;;;;13.45;64.17;102234.72;6219048;22;45105;-82
2021/10/09 03:53:08;;;;;;;;;34.00;29.25;;;;;13.37;63.85;102224.06;6219504;22;45890;-82
2021/10/09 03:55:34;;;;;;;;;32.00;28.75;;;;;13.37;64.25;102226.72;6217768;22;45237;-82
2021/10/09 03:57:59;;;;;;;;;33.00;27.75;;;;;13.30;64.57;102214.28;6217438;22;45153;-83
2021/10/09 04:00:25;;;;;;;;;35.00;28.50;;;;;13.33;64.37;102219.59;6217201;22;45149;-83
2021/10/09 04:02:51;;;;;;;;;34.25;29.75;;;;;13.27;64.18;102210.75;6218097;22;45177;-82
2021/10/09 04:05:17;;;;;;;;;30.75;27.50;;;;;13.41;64.15;102240.84;6217364;22;45209;-83
2021/10/09 04:07:42;;;;;;;;;32.75;29.50;;;;;13.35;64.44;102228.44;6217449;22;45264;-82
2021/10/09 04:10:09;;;;;;;;;29.25;28.00;;;;;13.31;64.18;102217.81;6217227;22;46087;-83
2021/10/09 04:12:35;;;;;;;;;31.50;28.75;;;;;13.25;64.03;102214.22;6216975;22;45347;-82
2021/10/09 04:15:00;;;;;;;;;30.50;24.75;;;;;13.32;64.46;102228.44;6215472;22;45372;-83
2021/10/09 04:17:26;;;;;;;;;29.00;27.00;;;;;13.38;64.44;102232.88;6214990;22;45414;-83
2021/10/09 04:19:52;;;;;;;;;34.75;31.75;;;;;13.20;64.27;102197.44;6215245;22;47033;-83
2021/10/09 04:22:17;;;;;;;;;33.50;26.75;;;;;13.30;64.35;102216.94;6214575;22;45435;-83
2021/10/09 04:24:43;;;;;;;;;39.50;33.00;;;;;13.31;64.44;102231.03;6215582;22;45378;-82
2021/10/09 04:27:08;;;;;;;;;31.25;26.75;;;;;13.21;64.58;102214.19;6216442;22;45550;-83
2021/10/09 04:29:34;;;;;;;;;36.75;29.75;;;;;13.25;64.25;102215.97;6216995;22;46035;-83
2021/10/09 04:31:59;;;;;;;;;34.25;32.25;;;;;13.23;64.77;102213.34;6215739;22;45222;-83
2021/10/09 04:34:25;;;;;;;;;32.75;30.00;;;;;13.21;64.09;102203.63;6215572;22;45234;-82
2021/10/09 04:36:50;;;;;;;;;30.50;27.75;;;;;13.33;64.65;102224.00;6216098;22;46007;-82
2021/10/09 04:39:16;;;;;;;;;31.25;30.00;;;;;13.25;64.32;102210.69;6219476;22;45238;-82
2021/10/09 04:41:42;;;;;;;;;33.75;30.25;;;;;13.31;64.17;102229.31;6216022;22;45261;-83
2021/10/09 04:44:07;;;;;;;;;34.25;29.00;;;;;13.22;64.42;102218.59;6220223;22;45171;-83
2021/10/09 04:46:33;;;;;;;;;33.00;28.75;;;;;13.28;64.33;102226.59;6220874;22;45180;-83
2021/10/09 04:49:00;;;;;;;;;32.50;28.00;;;;;13.10;64.21;102194.69;6217579;22;45275;-83
2021/10/09 04:51:25;;;;;;;;;35.50;32.25;;;;;13.21;64.39;102208.91;6217436;22;45457;-83
2021/10/09 04:53:51;;;;;;;;;34.00;31.75;;;;;13.23;64.47;102218.63;6214864;22;45432;-83
2021/10/09 04:56:17;;;;;;;;;33.75;32.50;;;;;13.15;64.58;102203.53;6216906;22;45255;-83
2021/10/09 04:58:42;;;;;;;;;47.25;36.25;;;;;13.18;64.37;102207.13;6216334;22;45469;-83
2021/10/09 05:01:08;;;;;;;;;42.25;32.75;;;;;13.22;64.75;102221.25;6215674;22;45670;-83
2021/10/09 05:03:33;;;;;;;;;38.75;33.75;;;;;13.16;64.74;102215.91;6215033;22;45202;-83
2021/10/09 05:05:59;;;;;;;;;38.25;32.00;;;;;13.12;64.57;102208.81;6217190;22;45161;-82
2021/10/09 05:08:25;;;;;;;;;45.50;36.00;;;;;13.15;64.67;102220.31;6214968;22;47059;-83
2021/10/09 05:10:50;;;;;;;;;40.25;33.75;;;;;12.95;64.50;102192.78;6217529;22;45170;-83
2021/10/09 05:13:16;;;;;;;;;40.75;33.25;;;;;12.95;64.77;102195.44;6214470;22;45258;-83
2021/10/09 05:15:43;;;;;;;;;37.50;33.25;;;;;12.94;65.07;102206.88;6216829;22;45520;-83
2021/10/09 05:18:09;;;;;;;;;32.00;32.00;;;;;13.03;65.10;102218.41;6218179;22;46297;-84
2021/10/09 05:20:35;;;;;;;;;41.00;33.25;;;;;12.99;65.42;102221.91;6216762;22;45654;-84
2021/10/09 05:23:01;;;;;;;;;34.25;27.25;;;;;12.85;65.38;102209.41;6217545;22;45362;-84
2021/10/09 05:25:27;;;;;;;;;41.75;34.50;;;;;12.85;65.43;102218.22;6217390;22;45523;-84
2021/10/09 05:28:05;;;;;;;;;42.75;36.75;;;;;12.80;65.49;102220.84;6217206;22;47479;-84
2021/10/09 05:30:33;;;;;;;;;48.50;36.25;;;;;12.72;65.43;102219.88;6220318;22;45157;-84
2021/10/09 05:33:12;;;;;;;;;43.00;33.25;;;;;12.74;65.69;102225.16;6216078;22;45304;-84
2021/10/09 05:35:38;;;;;;;;;46.50;36.50;;;;;12.73;65.52;102223.41;6218528;22;45387;-84
2021/10/09 05:38:04;;;;;;;;;41.25;35.00;;;;;12.73;65.48;102226.91;6215692;22;46894;-84
2021/10/09 05:40:29;;;;;;;;;37.75;34.50;;;;;12.58;65.40;102211.75;6217450;22;45238;-84
2021/10/09 05:42:54;;;;;;;;;36.50;33.25;;;;;12.51;65.50;102209.94;6215374;22;45403;-84
2021/10/09 05:45:20;;;;;;;;;36.25;33.25;;;;;12.57;65.44;102217.94;6217579;22;45406;-84
2021/10/09 05:47:48;;;;;;;;;37.50;33.75;;;;;12.63;65.44;102243.53;6215739;22;47410;-84
2021/10/09 05:50:15;;;;;;;;;39.50;34.50;;;;;12.42;65.39;102212.44;6216905;22;45687;-83
2021/10/09 05:52:52;;;;;;;;;41.00;34.75;;;;;12.42;65.48;102209.81;6215994;22;45197;-84
2021/10/09 05:55:31;;;;;;;;;41.75;37.00;;;;;12.53;65.68;102244.28;6219038;22;45216;-84
2021/10/09 05:58:11;;;;;;;;;38.50;34.00;;;;;12.52;65.37;102246.03;6215787;22;45404;-84
2021/10/09 06:49:35;;;;;;;;;45.50;37.25;;;;;12.19;65.97;102279.91;6217098;22;45197;-84
2021/10/09 07:00:12;;;;;;;;;42.50;36.00;;;;;12.17;66.42;102293.09;6218961;22;45254;-84
2021/10/09 07:02:39;;;;;;;;;46.00;37.50;;;;;12.25;66.65;102302.03;6217301;22;46049;-84
2021/10/09 07:05:07;;;;;;;;;41.00;34.00;;;;;12.24;66.61;102297.63;6216861;22;45330;-84
2021/10/09 07:07:36;;;;;;;;;41.50;38.00;;;;;12.24;66.46;102304.63;6214680;22;45393;-84
2021/10/09 07:10:03;;;;;;;;;44.50;37.00;;;;;12.15;66.52;102286.91;6216561;22;45406;-84
2021/10/09 07:12:28;;;;;;;;;48.75;40.00;;;;;12.23;66.78;102298.47;6216570;22;46217;-84
2021/10/09 07:14:54;;;;;;;;;50.50;37.00;;;;;12.26;66.94;102301.16;6214972;22;45406;-84
2021/10/09 07:17:19;;;;;;;;;51.00;41.00;;;;;12.39;66.79;102320.72;6214834;22;45365;-83
2021/10/09 07:19:45;;;;;;;;;51.50;41.75;;;;;12.45;66.78;102325.19;6216706;22;45587;-84
2021/10/09 07:22:10;;;;;;;;;50.75;40.00;;;;;12.39;66.65;102317.19;6216581;22;45994;-84
2021/10/09 07:24:36;;;;;;;;;46.25;38.00;;;;;12.38;66.85;102311.03;6216507;22;45366;-84
2021/10/09 07:27:02;;;;;;;;;46.25;38.00;;;;;12.38;66.99;102307.50;6214723;22;45381;-85
2021/10/09 07:29:28;;;;;;;;;48.75;40.00;;;;;12.43;66.55;102306.69;6214465;22;45436;-84
2021/10/09 07:31:54;;;;;;;;;52.75;43.25;;;;;12.57;66.60;102322.72;6216478;22;45185;-84
2021/10/09 07:34:20;;;;;;;;;51.50;41.75;;;;;12.57;66.76;102320.09;6217323;22;45168;-84
2021/10/09 07:36:46;;;;;;;;;47.00;38.25;;;;;12.66;66.89;102327.22;6216446;22;45188;-84
2021/10/09 07:39:12;;;;;;;;;42.75;37.00;;;;;12.58;66.99;102311.28;6216821;22;45879;-84
2021/10/09 07:41:37;;;;;;;;;55.00;43.25;;;;;12.68;66.81;102320.22;6216828;22;45166;-83
2021/10/09 07:44:03;;;;;;;;;50.25;42.00;;;;;12.79;66.73;102343.25;6217129;22;45177;-84
2021/10/09 07:46:29;;;;;;;;;54.75;43.75;;;;;12.71;66.95;102314.97;6214692;22;45336;-84
2021/10/09 07:48:54;;;;;;;;;51.50;41.00;;;;;12.80;66.76;102328.28;6216656;22;45295;-85
2021/10/09 07:51:22;;;;;;;;;49.50;40.50;;;;;12.85;66.67;102331.88;6214804;22;47798;-84
2021/10/09 07:53:48;;;;;;;;;51.25;43.25;;;;;12.81;66.64;102319.50;6216958;22;45406;-84
2021/10/09 07:56:13;;;;;;;;;62.00;49.25;;;;;12.88;66.92;102334.56;6214629;22;45234;-84
2021/10/09 07:58:39;;;;;;;;;60.50;48.50;;;;;13.00;66.57;102349.69;6216193;22;45471;-84
2021/10/09 08:01:04;;;;;;;;;59.75;46.50;;;;;13.01;66.89;102338.25;6216496;22;45223;-84
2021/10/09 08:03:30;;;;;;;;;62.00;50.25;;;;;13.16;66.74;102356.94;6214373;22;45125;-84
2021/10/09 08:05:56;;;;;;;;;64.00;50.25;;;;;13.18;66.44;102352.56;6216733;22;45169;-83
2021/10/09 08:08:21;;;;;;;;;71.75;54.00;;;;;13.07;66.60;102324.19;6214520;22;45617;-84
2021/10/09 08:10:48;;;;;;;;;76.25;59.25;;;;;13.16;66.62;102333.13;6214523;22;45864;-83
2021/10/09 08:13:15;;;;;;;;;69.75;55.75;;;;;13.25;66.29;102346.44;6213973;22;45214;-83
2021/10/09 08:15:42;;;;;;;;;70.75;55.00;;;;;13.34;66.49;102342.16;6216495;22;45258;-84
2021/10/09 08:18:08;;;;;;;;;62.25;50.00;;;;;13.51;66.20;102371.47;6214767;22;45470;-84
2021/10/09 08:20:33;;;;;;;;;64.00;48.00;;;;;13.40;66.34;102348.41;6217129;22;45395;-83
2021/10/09 08:23:02;;;;;;;;;61.25;48.75;;;;;13.46;65.89;102342.31;6216707;22;45263;-84
2021/10/09 08:38:55;;;;;;;;;59.25;44.75;;;;;14.00;65.46;102348.06;6215660;22;45382;-84
2021/10/09 08:41:21;;;;;;;;;52.75;41.50;;;;;13.97;65.38;102332.16;6213734;22;46792;-84
2021/10/09 08:43:50;;;;;;;;;51.75;42.75;;;;;14.17;65.34;102356.19;6215442;22;45366;-84
2021/10/09 08:46:22;;;;;;;;;48.50;39.75;;;;;14.18;64.89;102342.91;6213459;22;45211;-84
2021/10/09 08:48:51;;;;;;;;;53.50;45.00;;;;;14.23;64.90;102327.06;6213880;22;45413;-84
2021/10/09 08:51:27;;;;;;;;;52.00;41.25;;;;;14.43;64.67;102348.38;6214739;22;46998;-84
2021/10/09 08:54:03;;;;;;;;;51.00;42.50;;;;;14.36;64.37;102328.03;6217386;22;45270;-84
2021/10/09 08:56:32;;;;;;;;;53.75;41.25;;;;;14.59;64.36;102349.38;6217239;22;45212;-84
2021/10/09 08:59:08;;;;;;;;;49.75;40.00;;;;;14.69;64.60;102348.56;6214576;22;45439;-84
2021/10/09 09:01:56;;;;;;;;;53.25;42.25;;;;;14.71;64.08;102334.44;6214823;22;46182;-84
2021/10/09 09:39:06;;;;;;;;;39.50;36.50;;;;;15.74;61.31;102312.59;6094244;23;45545;-83
2021/10/09 09:40:58;;;;;;;;;37.25;34.00;;;;;15.90;61.22;102319.69;6075403;23;45224;-82
2021/10/09 09:43:37;;;;;;;;;39.25;34.75;;;;;16.03;60.60;102318.78;6163962;22;45360;-82
2021/10/09 09:46:15;;;;;;;;;34.25;31.50;;;;;16.12;60.45;102309.03;6217168;22;46103;-83
2021/10/09 09:48:46;;;;;;;;;35.25;30.25;;;;;16.28;59.60;102317.00;6214238;22;45198;-83
2021/10/09 09:51:14;;;;;;;;;33.50;31.50;;;;;16.34;59.32;102310.78;6214681;22;45262;-83
2021/10/09 09:53:44;;;;;;;;;30.75;28.75;;;;;16.45;58.90;102308.09;6216575;22;45174;-83
2021/10/09 09:56:14;;;;;;;;;27.00;26.25;;;;;16.53;58.29;102303.63;6214244;22;47162;-83
2021/10/09 09:58:42;;;;;;;;;30.50;27.25;;;;;16.70;58.54;102307.09;6213515;22;46049;-83
2021/10/09 10:01:09;;;;;;;;;29.50;29.25;;;;;16.76;57.48;102299.13;6213923;22;45204;-83
2021/10/09 10:03:36;;;;;;;;;33.25;31.75;;;;;16.89;57.18;102315.94;6214149;22;45455;-83
2021/10/09 10:06:06;;;;;;;;;31.25;27.50;;;;;16.87;56.63;102292.91;6214120;22;47971;-84
2021/10/09 10:08:31;;;;;;;;;38.00;32.00;;;;;16.97;56.32;102308.81;6216014;22;45182;-84
2021/10/09 10:11:00;;;;;;;;;33.25;28.50;;;;;16.96;56.55;102292.84;6214154;22;45183;-84
2021/10/09 10:13:29;;;;;;;;;32.75;29.75;;;;;17.20;56.62;102310.44;6213654;22;45887;-84
2021/10/09 10:15:56;;;;;;;;;34.25;29.50;;;;;17.33;56.48;102312.13;6215405;22;45274;-84
2021/10/09 10:18:43;;;;;;;;;32.00;29.50;;;;;17.47;55.29;102301.38;6216074;22;45106;-84
2021/10/09 10:21:09;;;;;;;;;32.25;30.25;;;;;17.46;55.48;102296.09;6215957;22;45132;-81
2021/10/09 10:23:37;;;;;;;;;33.50;31.75;;;;;17.60;55.25;102288.88;6213835;22;45466;-84
2021/10/09 10:26:34;;;;;;;;;30.50;27.50;;;;;17.69;54.92;102286.09;6213920;22;48267;-83
2021/10/09 10:29:00;;;;;;;;;30.50;27.75;;;;;17.85;54.66;102303.78;6232635;22;45692;-84
2021/10/09 10:31:29;;;;;;;;;38.50;34.75;;;;;17.99;54.61;102303.66;6214236;22;45388;-83
2021/10/09 10:34:23;;;;;;;;;27.25;23.00;;;;;18.19;53.66;102305.22;6214023;22;45447;-82
2021/10/09 10:36:49;;;;;;;;;26.00;23.00;;;;;18.22;52.52;102297.19;6213577;22;47414;-84
2021/10/09 10:39:23;;;;;;;;;27.75;27.75;;;;;18.27;52.75;102290.03;6214708;22;45402;-83
2021/10/09 10:42:01;;;;;;;;;26.75;22.75;;;;;18.43;52.23;102302.28;6214042;22;45214;-82
2021/10/09 10:44:49;;;;;;;;;24.25;22.00;;;;;18.58;52.11;102298.56;6214097;22;45925;-84
2021/10/09 10:47:51;;;;;;;;;22.00;20.50;;;;;18.78;51.89;102300.13;6217646;22;46189;-84
2021/10/09 10:51:10;;;;;;;;;27.25;26.50;;;;;18.97;51.34;102295.44;6216636;22;45328;-82
2021/10/09 10:56:36;;;;;;;;;27.25;24.00;;;;;19.07;50.16;102286.41;6216310;22;45118;-82
2021/10/09 11:02:36;;;;;;;;;23.25;21.00;;;;;19.01;49.48;102275.81;6216460;22;45358;-83
2021/10/09 11:05:30;;;;;;;;;27.50;27.50;;;;;19.13;49.87;102296.97;6216241;22;45315;-83
2021/10/09 11:07:56;;;;;;;;;32.00;26.75;;;;;19.17;50.26;102288.91;6213997;22;45332;-83
2021/10/09 11:10:24;;;;;;;;;23.50;21.75;;;;;19.29;49.58;102278.94;6214762;22;46393;-83
2021/10/09 11:12:51;;;;;;;;;23.25;22.50;;;;;19.41;48.99;102277.91;6216073;22;45264;-83
2021/10/09 11:15:25;;;;;;;;;24.00;22.50;;;;;19.57;49.38;102295.44;6216522;22;45225;-83
2021/10/09 11:17:59;;;;;;;;;26.75;24.00;;;;;19.67;48.94;102281.03;6214241;22;45422;-83
2021/10/09 11:20:33;;;;;;;;;24.50;22.00;;;;;19.85;48.75;102284.31;6217410;22;45126;-83
2021/10/09 11:23:03;;;;;;;;;31.00;27.75;;;;;20.00;48.37;102287.59;6213556;22;45692;-83
2021/10/09 11:25:33;;;;;;;;;23.25;23.25;;;;;20.10;48.03;102288.31;6214060;22;45208;-83
2021/10/09 11:28:01;;;;;;;;;25.00;23.50;;;;;20.08;47.59;102284.78;6215932;22;45410;-83
2021/10/09 11:30:28;;;;;;;;;20.00;18.50;;;;;20.18;47.29;102286.38;6214341;22;46438;-84
2021/10/09 11:32:56;;;;;;;;;23.00;21.25;;;;;20.27;46.68;102275.47;6215557;22;45187;-83
2021/10/09 11:35:36;;;;;;;;;22.00;20.25;;;;;20.34;46.58;102267.31;6216882;22;45354;-83
2021/10/09 11:38:18;;;;;;;;;21.75;21.00;;;;;20.42;45.97;102274.31;6218465;22;45184;-83
2021/10/09 11:40:49;;;;;;;;;24.50;19.50;;;;;20.37;45.76;102262.81;6216525;22;46232;-84
2021/10/09 11:43:25;;;;;;;;;22.25;20.25;;;;;20.47;46.05;102271.50;6218805;22;45344;-81
2021/10/09 11:46:15;;;;;;;;;26.50;21.25;;;;;20.56;45.62;102273.19;6261275;22;45346;-83
2021/10/09 11:54:47;;;;;;;;;18.00;16.50;;;;;21.14;44.35;102270.09;6173538;22;44900;-84
2021/10/09 11:57:15;;;;;;;;;23.75;20.25;;;;;21.19;43.76;102261.03;6142375;23;45329;-83
2021/10/09 11:59:41;;;;;;;;;26.75;20.75;;;;;21.29;44.42;102260.78;6189224;22;45441;-82
2021/10/09 12:02:08;;;;;;;;;19.75;18.25;;;;;21.38;44.78;102250.81;6216397;22;47292;-81
2021/10/09 12:04:35;;;;;;;;;20.75;20.25;;;;;21.60;44.22;102257.41;6218126;22;45264;-81
2021/10/09 12:07:08;;;;;;;;;24.25;22.00;;;;;21.74;43.43;102262.41;6216604;22;45301;-82
2021/10/09 12:09:57;;;;;;;;;20.00;20.00;;;;;21.83;43.66;102248.72;6216859;22;45236;-83
2021/10/09 12:12:32;;;;;;;;;19.50;17.75;;;;;22.04;43.37;102239.22;6239458;22;48063;-81
2021/10/09 12:14:58;;;;;;;;;17.75;15.50;;;;;22.24;41.81;102236.91;6213790;22;45379;-81
2021/10/09 12:17:37;;;;;;;;;15.67;15.67;;;;;22.38;41.53;102238.31;6216104;22;45446;-83
2021/10/09 12:20:07;;;;;;;;;17.75;16.50;;;;;22.56;41.54;102243.16;6213714;22;45202;-81
2021/10/09 12:22:42;;;;;;;;;19.00;17.50;;;;;22.74;41.35;102241.69;6214723;22;45265;-83
2021/10/09 12:25:18;;;;;;;;;22.75;21.00;;;;;23.03;40.75;102238.13;6213847;22;45490;-82
2021/10/09 12:27:44;;;;;;;;;20.75;18.50;;;;;23.51;39.79;102232.06;6217005;22;45216;-81
2021/10/09 12:30:16;;;;;;;;;16.25;15.50;;;;;24.21;39.23;102233.22;6214220;22;45425;-81
2021/10/09 12:32:51;;;;;;;;;22.25;17.75;;;;;24.79;38.53;102211.28;6216256;22;46376;-82
2021/10/09 12:35:27;;;;;;;;;19.67;17.67;;;;;25.14;36.21;102223.31;6216195;22;45375;-82
2021/10/09 12:37:55;;;;;;;;;17.00;16.00;;;;;25.31;36.75;102214.53;6213943;22;45348;-81
2021/10/09 12:40:21;;;;;;;;;18.00;17.25;;;;;25.64;36.40;102209.53;6213985;22;45355;-82
2021/10/09 12:42:52;;;;;;;;;17.33;17.00;;;;;25.99;35.87;102211.66;6215896;22;46147;-82
2021/10/09 12:45:19;;;;;;;;;16.67;15.33;;;;;26.47;35.43;102221.16;6215517;22;45252;-82
2021/10/09 12:47:45;;;;;;;;;15.67;14.00;;;;;26.80;35.12;102211.44;6213658;22;45264;-82
2021/10/09 12:50:11;;;;;;;;;17.00;17.00;;;;;27.08;34.93;102202.00;6216417;22;45281;-81
2021/10/09 12:52:37;;;;;;;;;15.00;15.00;;;;;27.09;33.66;102203.75;6215821;22;45438;-82
2021/10/09 12:55:05;;;;;;;;;16.00;14.00;;;;;27.14;33.51;102201.69;6214381;22;45163;-82
2021/10/09 12:57:32;;;;;;;;;18.00;17.33;;;;;27.19;32.86;102213.19;6215037;22;45374;-82
2021/10/09 13:00:00;;;;;;;;;16.67;15.67;;;;;27.17;32.62;102208.81;6215394;22;45371;-82
2021/10/09 13:02:26;;;;;;;;;15.00;15.00;;;;;27.15;32.69;102200.72;6213101;22;46318;-82
2021/10/09 13:04:52;;;;;;;;;21.00;20.00;;;;;27.26;32.89;102201.09;6213732;22;45272;-81
2021/10/09 13:07:18;;;;;;;;;14.00;14.00;;;;;27.27;31.41;102202.84;6213784;22;45192;-82
2021/10/09 13:09:44;;;;;;;;;19.33;19.33;;;;;27.30;31.75;102204.53;6213556;22;45198;-82
2021/10/09 13:12:13;;;;;;;;;14.00;14.00;;;;;27.43;32.42;102194.81;6216184;22;46315;-82
2021/10/09 13:14:39;;;;;;;;;14.00;13.33;;;;;27.79;31.98;102198.38;6217592;22;45357;-81
2021/10/09 13:17:04;;;;;;;;;14.33;14.33;;;;;28.08;31.69;102195.00;6222964;22;45137;-81
2021/10/09 13:19:30;;;;;;;;;14.67;13.33;;;;;28.03;31.27;102191.69;6221593;22;46098;-82
2021/10/09 13:21:55;;;;;;;;;15.00;14.00;;;;;28.28;31.05;102210.19;6219102;22;45254;-81
2021/10/09 13:24:22;;;;;;;;;14.33;14.00;;;;;28.40;30.81;102197.78;6217777;22;45133;-81
2021/10/09 13:26:48;;;;;;;;;15.00;14.00;;;;;28.40;30.85;102197.78;6217991;22;45200;-82